Time;durP1;ratioP1;P1;durP2;ratioP2;P2;SDS_P1;SDS_P2;PMS_P1;PMS_P2;Temp;Humidity;BMP_temperature;BMP_pressure;BME280_temperature;BME280_humidity;BME280_pressure;Samples;Min_cycle;Max_cycle;Signal;HPM_P1;HPM_P2
2022/08/22 00:00:12;;;;;;;8.15;3.05;;;18.90;97.00;;;;;;5046390;28;20052;-69
2022/08/22 00:02:47;;;;;;;7.50;2.08;;;19.00;97.00;;;;;;5054151;28;20021;-69
2022/08/22 00:05:22;;;;;;;5.20;1.90;;;18.90;97.00;;;;;;5063706;28;20020;-69
2022/08/22 00:08:21;;;;;;;9.65;1.90;;;19.00;97.80;;;;;;5071417;28;20082;-68
2022/08/22 00:11:04;;;;;;;7.32;2.10;;;19.00;97.20;;;;;;5056878;28;20038;-69
2022/08/22 00:13:30;;;;;;;10.02;2.45;;;18.90;98.00;;;;;;5071856;28;20495;-69
2022/08/22 00:16:19;;;;;;;16.83;3.33;;;18.90;97.50;;;;;;5071243;28;20025;-69
2022/08/22 00:18:54;;;;;;;4.70;1.70;;;18.80;98.00;;;;;;5072714;28;20063;-69
2022/08/22 00:21:41;;;;;;;7.30;2.35;;;18.90;98.10;;;;;;5072178;28;20040;-69
2022/08/22 00:24:29;;;;;;;10.30;2.72;;;18.80;97.00;;;;;;5049851;28;20024;-69
2022/08/22 00:27:16;;;;;;;7.25;2.45;;;18.90;97.70;;;;;;5072329;28;20092;-69
2022/08/22 00:29:50;;;;;;;6.65;2.10;;;18.90;98.40;;;;;;5072083;28;20545;-69
2022/08/22 00:32:37;;;;;;;6.90;2.25;;;18.80;97.70;;;;;;5072089;28;20025;-69
2022/08/22 00:35:21;;;;;;;6.55;2.50;;;18.70;98.50;;;;;;5072460;28;20040;-69
2022/08/22 00:37:55;;;;;;;6.00;2.30;;;18.80;98.80;;;;;;5072582;28;20028;-69
2022/08/22 00:40:30;;;;;;;;;;;18.80;98.80;;;;;;5061582;28;20048;-69
2022/08/22 00:43:06;;;;;;;7.30;2.35;;;18.60;98.20;;;;;;5072516;28;19958;-69
2022/08/22 00:46:10;;;;;;;7.05;2.55;;;18.70;97.70;;;;;;5070544;28;20067;-69
2022/08/22 00:48:59;;;;;;;7.45;2.55;;;18.60;99.10;;;;;;5040401;28;20112;-69
2022/08/22 00:51:31;;;;;;;7.97;2.17;;;19.00;99.20;;;;;;5071876;28;20449;-69
2022/08/22 00:54:05;;;;;;;7.32;1.88;;;18.70;98.40;;;;;;5071993;28;20103;-69
2022/08/22 00:56:36;;;;;;;6.43;2.67;;;18.70;98.50;;;;;;5071777;28;20385;-69
2022/08/22 00:59:48;;;;;;;8.57;2.72;;;18.60;98.50;;;;;;5071027;28;20714;-69
2022/08/22 01:02:26;;;;;;;5.43;2.28;;;18.60;98.70;;;;;;5071519;28;20036;-69
2022/08/22 01:05:12;;;;;;;8.27;2.25;;;18.60;98.70;;;;;;5072072;28;20381;-69
2022/08/22 01:08:01;;;;;;;9.55;2.10;;;18.50;99.40;;;;;;5051548;28;20029;-69
2022/08/22 01:10:33;;;;;;;6.05;2.05;;;18.60;98.70;;;;;;5061598;28;20541;-69
2022/08/22 01:13:25;;;;;;;8.63;3.33;;;18.60;99.40;;;;;;5066461;28;20047;-69
2022/08/22 01:16:26;;;;;;;4.88;2.30;;;18.50;98.70;;;;;;5071933;28;20025;-69
2022/08/22 01:18:58;;;;;;;8.25;2.08;;;18.60;98.70;;;;;;5045365;28;20496;-69
2022/08/22 01:22:04;;;;;;;6.90;2.60;;;18.70;98.30;;;;;;5069668;28;20039;-69
2022/08/22 01:28:02;;;;;;;5.15;2.45;;;18.80;99.00;;;;;;5048500;28;20096;-68
2022/08/22 01:30:45;;;;;;;8.90;2.60;;;18.70;98.90;;;;;;5066668;28;20037;-69
2022/08/22 01:33:43;;;;;;;8.93;2.58;;;18.70;98.90;;;;;;5064525;28;20074;-69
2022/08/22 01:36:40;;;;;;;5.70;2.53;;;18.70;99.00;;;;;;5050991;28;20490;-69
2022/08/22 01:39:47;;;;;;;4.28;2.28;;;18.60;99.00;;;;;;5043525;28;20017;-69
2022/08/22 01:42:55;;;;;;;11.00;2.55;;;18.60;99.10;;;;;;5070370;28;20060;-69
2022/08/22 01:45:41;;;;;;;8.88;2.60;;;18.60;99.10;;;;;;5028471;28;20045;-69
2022/08/22 01:48:19;;;;;;;11.65;3.00;;;18.60;99.20;;;;;;5028941;28;20048;-69
2022/08/22 01:51:01;;;;;;;7.47;2.25;;;18.70;99.10;;;;;;5017792;28;20034;-69
2022/08/22 01:53:35;;;;;;;6.35;2.70;;;18.30;99.80;;;;;;5011168;28;20305;-69
2022/08/22 01:56:06;;;;;;;9.75;3.05;;;18.60;99.90;;;;;;5027248;28;20041;-69
2022/08/22 01:58:35;;;;;;;7.88;2.45;;;18.70;99.90;;;;;;5028308;28;20029;-69
2022/08/22 02:01:15;;;;;;;4.85;2.75;;;18.60;99.90;;;;;;5027912;28;20053;-69
2022/08/22 02:03:57;;;;;;;5.78;2.53;;;18.70;99.90;;;;;;5028440;28;20869;-69
2022/08/22 02:06:32;;;;;;;9.45;2.15;;;18.60;99.50;;;;;;5028299;28;20029;-69
2022/08/22 02:09:21;;;;;;;11.48;3.72;;;19.40;99.90;;;;;;5028689;28;20487;-68
2022/08/22 02:11:54;;;;;;;6.40;2.35;;;18.70;99.70;;;;;;5014025;28;20069;-69
2022/08/22 02:14:32;;;;;;;13.87;2.80;;;18.70;99.60;;;;;;5028186;28;20041;-69
2022/08/22 02:17:20;;;;;;;10.75;2.45;;;18.70;99.90;;;;;;5011800;28;20021;-69
2022/08/22 02:20:06;;;;;;;7.43;3.65;;;18.60;99.90;;;;;;4989658;28;20072;-69
2022/08/22 02:23:13;;;;;;;7.15;2.45;;;18.70;99.90;;;;;;5026295;28;20037;-69
2022/08/22 02:25:51;;;;;;;6.55;2.50;;;18.70;99.80;;;;;;5049531;28;20043;-69
2022/08/22 02:28:55;;;;;;;7.05;3.08;;;18.50;99.90;;;;;;5050632;28;20028;-69
2022/08/22 02:32:01;;;;;;;11.43;2.88;;;18.70;99.70;;;;;;5049010;28;20033;-69
2022/08/22 02:34:52;;;;;;;9.02;2.90;;;18.70;99.90;;;;;;5049857;28;20378;-69
2022/08/22 02:37:24;;;;;;;7.47;3.10;;;18.80;99.90;;;;;;5049680;28;20553;-69
2022/08/22 02:40:03;;;;;;;8.90;3.03;;;18.70;99.70;;;;;;5050230;28;20059;-69
2022/08/22 02:42:58;;;;;;;8.75;2.63;;;18.60;99.90;;;;;;5049867;28;20043;-69
2022/08/22 02:45:43;;;;;;;6.70;3.13;;;18.50;99.90;;;;;;5049826;28;20021;-69
2022/08/22 02:48:35;;;;;;;6.95;2.80;;;20.90;99.90;;;;;;5037370;28;20386;-69
2022/08/22 02:51:20;;;;;;;8.15;2.83;;;18.50;99.90;;;;;;5049806;28;20029;-69
2022/08/22 02:54:13;;;;;;;9.98;3.30;;;18.50;99.90;;;;;;5049791;28;20112;-69
2022/08/22 02:56:47;;;;;;;7.45;2.47;;;18.40;99.90;;;;;;5050026;28;20025;-69
2022/08/22 02:59:34;;;;;;;7.30;3.30;;;18.60;99.90;;;;;;5049277;28;20045;-69
2022/08/22 03:02:43;;;;;;;6.28;3.10;;;18.30;99.90;;;;;;5048524;28;20060;-69
2022/08/22 03:05:34;;;;;;;10.55;3.03;;;18.50;99.90;;;;;;5049684;28;20021;-69
2022/08/22 03:08:03;;;;;;;11.68;3.53;;;18.50;99.90;;;;;;5025722;28;20053;-69
2022/08/22 03:10:36;;;;;;;8.27;3.55;;;18.60;99.90;;;;;;5049428;28;20025;-69
2022/08/22 03:13:24;;;;;;;11.45;3.97;;;18.40;99.90;;;;;;5065313;28;20477;-69
2022/08/22 03:16:05;;;;;;;7.25;3.13;;;18.30;99.90;;;;;;5070097;28;20108;-69
2022/08/22 03:18:53;;;;;;;7.95;3.17;;;18.50;99.90;;;;;;5069383;28;20534;-69
2022/08/22 03:21:32;;;;;;;9.18;2.88;;;19.20;99.90;;;;;;5069205;28;20124;-69
2022/08/22 03:24:24;;;;;;;10.57;2.97;;;18.40;99.90;;;;;;5044219;28;20027;-69
2022/08/22 03:27:04;;;;;;;6.35;3.08;;;18.60;99.90;;;;;;5069546;28;20534;-69
2022/08/22 03:29:39;;;;;;;7.97;2.72;;;18.40;99.90;;;;;;5069416;28;20032;-69
2022/08/22 03:32:12;;;;;;;8.90;3.70;;;17.60;99.90;;;;;;5070074;28;20021;-69
2022/08/22 03:35:00;;;;;;;11.68;3.65;;;18.30;99.90;;;;;;5073771;28;20055;-68
2022/08/22 03:37:37;;;;;;;11.02;3.90;;;18.40;99.90;;;;;;5053734;28;20138;-68
2022/08/22 03:40:18;;;;;;;11.73;3.47;;;18.40;99.90;;;;;;5067602;28;20555;-68
2022/08/22 03:43:11;;;;;;;5.90;2.80;;;18.40;99.90;;;;;;5049866;28;20023;-68
2022/08/22 03:45:59;;;;;;;8.85;3.40;;;18.40;99.90;;;;;;5071976;28;20499;-68
2022/08/22 03:48:54;;;;;;;5.97;2.78;;;18.30;99.90;;;;;;5073045;28;20044;-68
2022/08/22 03:51:26;;;;;;;5.72;2.67;;;18.20;99.90;;;;;;5073083;28;20021;-68
2022/08/22 03:54:20;;;;;;;7.25;2.70;;;18.50;99.90;;;;;;5073677;28;20123;-68
2022/08/22 03:57:10;;;;;;;5.85;2.97;;;18.30;99.90;;;;;;5062000;28;20060;-68
2022/08/22 04:00:09;;;;;;;5.53;3.30;;;18.30;99.90;;;;;;5062109;28;20040;-68
2022/08/22 04:02:57;;;;;;;9.07;3.60;;;18.30;99.90;;;;;;5072927;28;20009;-68
2022/08/22 04:05:41;;;;;;;7.70;3.38;;;18.40;99.90;;;;;;5072648;28;20020;-69
2022/08/22 04:08:18;;;;;;;7.25;2.85;;;18.30;99.90;;;;;;5059020;28;20078;-69
2022/08/22 04:11:30;;;;;;;14.02;2.95;;;18.20;99.90;;;;;;5062273;28;20025;-68
2022/08/22 04:13:58;;;;;;;7.53;3.63;;;18.40;99.90;;;;;;5039615;28;20113;-68
2022/08/22 04:16:57;;;;;;;12.82;3.92;;;18.30;99.90;;;;;;5050104;28;20572;-68
2022/08/22 04:19:56;;;;;;;10.07;3.80;;;18.40;99.90;;;;;;5050106;28;20515;-69
2022/08/22 04:22:46;;;;;;;9.77;3.83;;;18.40;99.90;;;;;;5049625;28;20080;-68
2022/08/22 04:25:22;;;;;;;9.18;3.08;;;18.30;99.90;;;;;;5049742;28;20485;-68
2022/08/22 04:28:16;;;;;;;10.10;3.95;;;18.50;99.90;;;;;;5050274;28;20482;-68
2022/08/22 04:31:10;;;;;;;9.45;3.65;;;18.50;99.90;;;;;;5050387;28;20140;-68
2022/08/22 04:33:48;;;;;;;13.88;4.00;;;18.40;99.90;;;;;;5050103;28;20048;-69
2022/08/22 04:36:19;;;;;;;12.15;4.28;;;18.40;99.90;;;;;;5048902;28;20500;-68
2022/08/22 04:39:06;;;;;;;8.23;4.15;;;18.20;99.90;;;;;;5050008;28;20043;-68
2022/08/22 04:41:49;;;;;;;7.40;3.75;;;18.40;99.90;;;;;;5049351;28;20136;-68
2022/08/22 04:44:31;;;;;;;7.45;4.32;;;18.30;99.90;;;;;;5032107;28;20112;-68
2022/08/22 04:47:22;;;;;;;12.13;4.30;;;18.30;99.90;;;;;;5052141;28;20075;-68
2022/08/22 04:50:16;;;;;;;10.05;3.45;;;18.40;99.90;;;;;;5071725;28;20021;-68
2022/08/22 04:52:51;;;;;;;11.07;4.57;;;18.50;99.90;;;;;;5068029;28;20566;-68
2022/08/22 04:55:42;;;;;;;8.50;3.30;;;18.30;99.90;;;;;;5070502;28;20021;-69
2022/08/22 04:58:33;;;;;;;5.70;3.90;;;18.40;99.90;;;;;;5055998;28;20032;-68
2022/08/22 05:01:18;;;;;;;8.80;4.47;;;18.30;99.90;;;;;;5069942;28;20071;-68
2022/08/22 05:04:04;;;;;;;8.35;3.92;;;18.20;99.90;;;;;;5071910;28;20028;-69
2022/08/22 05:06:32;;;;;;;9.90;4.35;;;18.30;99.90;;;;;;5042042;28;20086;-68
2022/08/22 05:09:03;;;;;;;15.15;5.55;;;18.20;99.90;;;;;;5065797;28;20377;-69
2022/08/22 05:11:30;;;;;;;9.93;4.03;;;18.20;99.90;;;;;;5057466;28;20386;-68
2022/08/22 05:14:01;;;;;;;6.40;4.10;;;18.30;99.90;;;;;;5071972;28;20040;-68
2022/08/22 05:16:37;;;;;;;14.48;4.55;;;18.20;99.90;;;;;;5071271;28;20025;-69
2022/08/22 05:19:09;;;;;;;9.27;4.07;;;18.30;99.90;;;;;;5071214;28;20031;-69
2022/08/22 05:21:39;;;;;;;7.43;3.70;;;18.20;99.90;;;;;;5071375;28;20040;-68
2022/08/22 05:24:22;;;;;;;10.10;3.88;;;18.40;99.90;;;;;;5071838;28;20025;-69
2022/08/22 05:26:51;;;;;;;5.75;3.55;;;18.30;99.90;;;;;;5070314;28;20035;-68
2022/08/22 05:29:27;;;;;;;11.40;4.28;;;18.30;99.90;;;;;;5071100;28;20029;-68
2022/08/22 05:32:04;;;;;;;11.02;4.97;;;18.40;99.90;;;;;;5071060;28;20116;-68
2022/08/22 05:34:37;;;;;;;10.90;4.38;;;18.40;99.90;;;;;;5070551;28;20523;-69
2022/08/22 05:37:21;;;;;;;9.27;3.45;;;18.40;99.90;;;;;;5060867;28;20482;-68
2022/08/22 05:39:53;;;;;;;6.82;3.55;;;17.90;99.90;;;;;;5071221;28;20036;-69
2022/08/22 05:42:29;;;;;;;12.65;4.32;;;19.10;99.90;;;;;;5070609;28;20338;-68
2022/08/22 05:44:56;;;;;;;11.88;4.72;;;18.50;99.90;;;;;;5071435;28;20035;-68
2022/08/22 05:47:28;;;;;;;12.13;5.05;;;18.50;99.90;;;;;;5070636;28;20020;-69
2022/08/22 05:50:05;;;;;;;9.77;4.22;;;18.40;99.90;;;;;;5071068;28;20153;-68
2022/08/22 05:52:37;;;;;;;12.48;5.05;;;18.50;99.90;;;;;;5070430;28;20032;-68
2022/08/22 05:55:08;;;;;;;8.65;4.20;;;18.50;99.90;;;;;;5070634;28;20032;-68
2022/08/22 05:57:38;;;;;;;9.30;4.78;;;18.60;99.90;;;;;;5070381;28;20488;-68
2022/08/22 06:00:11;;;;;;;8.88;4.25;;;18.60;99.90;;;;;;5070242;28;20051;-68
2022/08/22 06:02:52;;;;;;;14.20;4.88;;;18.70;99.90;;;;;;5069860;28;20055;-68
2022/08/22 06:05:24;;;;;;;13.38;5.28;;;18.70;99.90;;;;;;5068836;28;20017;-68
2022/08/22 06:07:57;;;;;;;7.50;4.53;;;18.70;99.90;;;;;;5069275;28;20023;-68
2022/08/22 06:10:34;;;;;;;9.45;4.20;;;18.60;99.90;;;;;;5062208;28;20021;-68
2022/08/22 06:13:22;;;;;;;10.10;4.22;;;18.70;99.90;;;;;;5065495;28;20025;-68
2022/08/22 06:16:15;;;;;;;9.77;4.13;;;18.80;99.90;;;;;;5069378;28;20031;-68
2022/08/22 06:18:43;;;;;;;7.00;3.70;;;19.00;99.90;;;;;;5070183;28;20913;-69
2022/08/22 06:21:16;;;;;;;11.00;3.72;;;18.90;99.90;;;;;;5070292;28;20036;-68
2022/08/22 06:23:41;;;;;;;11.25;4.35;;;19.00;99.90;;;;;;5070134;28;20020;-68
2022/08/22 06:26:10;;;;;;;9.32;4.35;;;19.10;99.90;;;;;;5070238;28;20466;-68
2022/08/22 06:28:48;;;;;;;11.10;4.40;;;19.20;99.90;;;;;;5070248;28;20027;-68
2022/08/22 06:31:20;;;;;;;7.32;4.00;;;19.30;99.90;;;;;;5069665;28;20043;-69
2022/08/22 06:33:58;;;;;;;11.07;3.58;;;19.30;99.90;;;;;;5070322;28;20027;-68
2022/08/22 06:36:31;;;;;;;15.55;4.05;;;19.40;99.90;;;;;;5065995;28;20040;-68
2022/08/22 06:39:08;;;;;;;9.57;3.85;;;19.40;99.90;;;;;;5070255;28;20487;-68
2022/08/22 06:41:39;;;;;;;10.57;3.80;;;19.40;99.30;;;;;;5051499;28;20134;-68
2022/08/22 06:44:06;;;;;;;7.78;4.10;;;19.30;99.80;;;;;;5049801;28;20082;-69
2022/08/22 06:46:35;;;;;;;7.55;4.32;;;19.60;99.60;;;;;;5049454;28;20029;-68
2022/08/22 06:49:03;;;;;;;6.82;4.60;;;19.60;99.60;;;;;;5049590;28;20024;-69
2022/08/22 06:51:29;;;;;;;8.35;4.20;;;20.30;99.60;;;;;;5049278;28;20021;-68
2022/08/22 06:54:00;;;;;;;10.85;4.35;;;19.60;99.30;;;;;;5051594;28;20470;-68
2022/08/22 06:56:34;;;;;;;12.88;4.13;;;19.70;99.50;;;;;;5049792;28;20592;-68
2022/08/22 06:59:04;;;;;;;9.23;4.63;;;19.80;99.40;;;;;;5042345;28;20044;-68
2022/08/22 07:01:34;;;;;;;11.50;4.20;;;19.70;99.20;;;;;;5048134;28;20366;-68
2022/08/22 07:04:08;;;;;;;11.77;5.25;;;19.80;99.20;;;;;;5049662;28;20078;-69
2022/08/22 07:06:37;;;;;;;8.60;4.55;;;19.90;99.20;;;;;;5049623;28;20060;-68
2022/08/22 07:09:05;;;;;;;10.05;4.18;;;19.70;98.90;;;;;;5046667;28;20055;-68
2022/08/22 07:11:36;;;;;;;9.77;4.40;;;19.90;98.80;;;;;;5051081;28;20029;-69
2022/08/22 07:14:04;;;;;;;10.85;4.78;;;19.80;98.90;;;;;;5048788;28;20055;-69
2022/08/22 07:16:44;;;;;;;6.57;4.70;;;19.80;98.60;;;;;;5047534;28;20396;-68
2022/08/22 07:19:29;;;;;;;10.38;3.83;;;19.90;97.80;;;;;;5047934;28;20033;-68
2022/08/22 07:21:56;;;;;;;7.55;4.47;;;19.90;98.30;;;;;;5046682;28;20037;-69
2022/08/22 07:24:30;;;;;;;8.93;4.68;;;20.00;98.50;;;;;;5047882;28;20383;-68
2022/08/22 07:26:55;;;;;;;7.78;4.43;;;20.10;98.60;;;;;;5049161;28;20025;-68
2022/08/22 07:29:41;;;;;;;9.70;4.80;;;21.30;98.40;;;;;;5045823;28;20033;-68
2022/08/22 07:32:33;;;;;;;8.18;4.07;;;20.10;97.80;;;;;;5047468;28;20017;-68
2022/08/22 07:35:05;;;;;;;10.27;3.90;;;20.10;98.40;;;;;;5045219;28;20560;-69
2022/08/22 07:37:55;;;;;;;12.82;5.25;;;20.20;98.40;;;;;;5047940;28;20032;-68
2022/08/22 07:40:46;;;;;;;5.38;3.75;;;20.30;97.70;;;;;;5050008;28;20044;-68
2022/08/22 07:43:26;;;;;;;14.27;4.32;;;20.10;97.10;;;;;;5047590;28;20462;-69
2022/08/22 07:45:56;;;;;;;9.25;4.03;;;20.30;98.30;;;;;;5049849;28;20509;-69
2022/08/22 07:48:25;;;;;;;7.78;3.33;;;20.20;98.20;;;;;;5047232;28;20040;-68
2022/08/22 07:51:16;;;;;;;9.32;5.15;;;20.50;97.90;;;;;;5045334;28;20029;-68
2022/08/22 07:53:46;;;;;;;11.05;4.50;;;20.30;97.40;;;;;;5046436;28;20068;-68
2022/08/22 07:56:21;;;;;;;7.95;4.13;;;20.40;97.00;;;;;;5047612;28;20029;-69
2022/08/22 07:58:52;;;;;;;11.10;4.85;;;20.50;97.20;;;;;;5048014;28;20115;-68
2022/08/22 08:01:21;;;;;;;7.35;4.00;;;20.80;97.90;;;;;;5048300;28;20037;-70
2022/08/22 08:03:58;;;;;;;11.20;4.32;;;20.60;97.70;;;;;;5059833;28;20020;-69
2022/08/22 08:06:25;;;;;;;12.27;4.25;;;20.70;96.90;;;;;;5059910;28;20552;-70
2022/08/22 08:08:52;;;;;;;9.55;4.60;;;20.80;97.20;;;;;;5055633;28;20025;-70
2022/08/22 08:11:21;;;;;;;10.30;4.13;;;20.90;96.90;;;;;;5048140;28;20033;-69
2022/08/22 08:14:00;;;;;;;8.85;4.10;;;21.00;97.20;;;;;;5056116;28;20021;-69
2022/08/22 08:16:31;;;;;;;9.77;3.97;;;21.00;96.00;;;;;;5062475;28;20366;-70
2022/08/22 08:19:00;;;;;;;11.77;4.30;;;21.10;96.50;;;;;;5066056;28;20023;-68
2022/08/22 08:21:36;;;;;;;10.20;4.57;;;22.10;96.40;;;;;;5072329;28;20036;-69
2022/08/22 08:24:06;;;;;;;10.77;4.68;;;21.90;96.30;;;;;;5072388;28;20028;-69
2022/08/22 08:28:32;;;;;;;6.43;3.80;;;21.50;96.00;;;;;;5071103;28;20451;-68
2022/08/22 08:29:27;;;;;;;12.07;4.07;;;23.20;96.40;;;;;;5072407;28;20047;-69
2022/08/22 08:31:53;;;;;;;6.63;3.80;;;22.10;95.60;;;;;;5068425;28;20028;-69
2022/08/22 08:34:23;;;;;;;7.65;4.30;;;21.60;95.40;;;;;;5052318;28;20037;-69
2022/08/22 08:37:00;;;;;;;12.95;3.60;;;21.70;95.60;;;;;;5066496;28;20111;-69
2022/08/22 08:39:43;;;;;;;9.65;4.00;;;21.50;94.80;;;;;;5060448;28;20035;-69
2022/08/22 08:45:39;;;;;;;8.10;4.00;;;21.70;95.10;;;;;;5054214;28;20079;-69
2022/08/22 08:48:37;;;;;;;8.27;3.72;;;21.50;94.80;;;;;;5066336;28;20013;-69
2022/08/22 08:51:31;;;;;;;7.20;3.30;;;21.50;94.80;;;;;;5044907;28;20020;-69
2022/08/22 08:54:14;;;;;;;9.60;3.42;;;21.60;95.00;;;;;;5057937;28;20078;-69
2022/08/22 08:56:51;;;;;;;7.50;3.42;;;21.50;95.80;;;;;;5052991;28;20127;-69
2022/08/22 08:59:38;;;;;;;7.90;3.90;;;21.50;95.10;;;;;;5065109;28;20045;-69
2022/08/22 09:02:26;;;;;;;5.30;3.58;;;21.50;95.30;;;;;;5072174;28;20430;-69
2022/08/22 09:05:13;;;;;;;10.32;4.20;;;21.40;95.30;;;;;;5048424;28;20025;-69
2022/08/22 09:07:41;;;;;;;9.60;4.03;;;21.60;95.20;;;;;;5071217;28;20185;-69
2022/08/22 09:10:37;;;;;;;9.25;4.70;;;21.50;95.80;;;;;;5063997;28;20090;-69
2022/08/22 09:13:36;;;;;;;14.07;4.28;;;21.80;95.10;;;;;;5048538;28;20048;-69
2022/08/22 09:16:17;;;;;;;10.80;4.40;;;21.90;95.10;;;;;;5040732;28;20079;-69
2022/08/22 09:19:01;;;;;;;8.90;3.90;;;22.40;95.40;;;;;;5050525;28;20028;-69
2022/08/22 09:21:55;;;;;;;5.28;3.45;;;22.10;94.60;;;;;;5057495;28;20494;-69
2022/08/22 09:24:47;;;;;;;10.40;4.25;;;22.00;94.20;;;;;;5049547;28;20040;-69
2022/08/22 09:27:34;;;;;;;10.50;4.78;;;22.20;94.20;;;;;;5050518;28;20021;-69
2022/08/22 09:30:18;;;;;;;6.10;3.38;;;22.40;93.80;;;;;;5039660;28;20028;-69
2022/08/22 09:33:12;;;;;;;8.18;3.55;;;22.40;94.30;;;;;;5053066;28;20099;-70
2022/08/22 09:35:40;;;;;;;8.85;2.92;;;22.50;94.20;;;;;;5069205;28;20031;-70
2022/08/22 09:38:23;;;;;;;8.23;2.80;;;22.60;93.00;;;;;;5070428;28;20017;-70
2022/08/22 09:41:19;;;;;;;8.27;3.63;;;22.60;93.40;;;;;;5056955;28;20037;-69
2022/08/22 09:44:07;;;;;;;8.38;4.70;;;22.80;93.30;;;;;;5051224;28;20029;-69
2022/08/22 09:46:56;;;;;;;9.05;3.45;;;22.90;92.90;;;;;;5050709;28;20028;-69
2022/08/22 09:49:39;;;;;;;6.53;3.25;;;22.90;92.50;;;;;;5050563;28;20031;-70
2022/08/22 09:52:18;;;;;;;5.93;2.10;;;22.90;92.30;;;;;;5060578;28;20025;-69
2022/08/22 09:54:49;;;;;;;7.47;3.17;;;22.70;93.00;;;;;;5054765;28;20041;-70
2022/08/22 09:57:25;;;;;;;8.82;4.18;;;22.90;92.80;;;;;;5058315;28;20048;-69
2022/08/22 10:00:21;;;;;;;10.85;3.40;;;22.80;92.60;;;;;;5063176;28;20046;-69
2022/08/22 10:03:13;;;;;;;9.52;3.40;;;23.00;91.80;;;;;;5041211;28;20482;-69
2022/08/22 10:05:53;;;;;;;9.85;3.85;;;23.00;91.70;;;;;;5049862;28;20382;-69
2022/08/22 10:08:35;;;;;;;10.75;3.40;;;23.10;91.80;;;;;;5049393;28;20436;-69
2022/08/22 10:11:24;;;;;;;7.35;2.58;;;23.20;91.80;;;;;;5055104;28;20020;-69
2022/08/22 10:14:47;;;;;;;6.20;2.97;;;23.10;91.70;;;;;;5056814;28;20017;-70
2022/08/22 10:17:23;;;;;;;5.60;2.10;;;23.40;90.80;;;;;;5027420;28;20821;-69
2022/08/22 10:19:51;;;;;;;7.57;2.47;;;23.40;91.40;;;;;;5039105;28;20032;-68
2022/08/22 10:22:43;;;;;;;6.68;2.65;;;23.70;90.90;;;;;;5027009;28;20021;-68
2022/08/22 10:25:26;;;;;;;11.10;2.67;;;23.60;90.30;;;;;;5025482;28;20039;-68
2022/08/22 10:28:13;;;;;;;12.60;3.17;;;23.50;89.30;;;;;;5019728;28;20057;-68
2022/08/22 10:30:53;;;;;;;6.10;2.30;;;23.50;90.30;;;;;;5039938;28;20025;-68
2022/08/22 10:33:40;;;;;;;5.03;2.38;;;23.60;88.40;;;;;;5039541;28;20064;-68
2022/08/22 10:36:11;;;;;;;10.05;3.78;;;23.80;88.80;;;;;;5008394;28;20029;-68
2022/08/22 10:38:47;;;;;;;5.80;2.10;;;23.70;89.70;;;;;;5031488;28;20121;-68
2022/08/22 10:41:49;;;;;;;6.65;2.30;;;23.70;90.00;;;;;;5041173;28;20072;-68
2022/08/22 10:44:33;;;;;;;7.72;2.17;;;23.70;87.20;;;;;;5042025;28;20091;-68
2022/08/22 10:47:14;;;;;;;8.10;1.67;;;23.70;86.10;;;;;;5041896;28;20033;-68
2022/08/22 10:49:52;;;;;;;8.85;2.17;;;23.60;85.70;;;;;;5046755;28;20021;-68
2022/08/22 10:52:24;;;;;;;9.07;2.25;;;23.60;85.40;;;;;;5047357;28;20244;-68
2022/08/22 10:54:59;;;;;;;9.02;2.10;;;23.70;85.30;;;;;;5049964;28;20520;-68
2022/08/22 10:57:58;;;;;;;8.57;1.70;;;23.60;83.30;;;;;;5048087;28;20071;-68
2022/08/22 11:00:42;;;;;;;5.05;1.83;;;23.60;83.90;;;;;;5049471;28;20375;-68
2022/08/22 11:03:21;;;;;;;6.57;1.98;;;23.60;83.50;;;;;;5049732;28;20531;-67
2022/08/22 11:05:50;;;;;;;8.88;2.28;;;23.60;83.20;;;;;;5049311;28;20045;-69
2022/08/22 11:08:43;;;;;;;5.00;2.03;;;23.60;84.80;;;;;;5046011;28;20444;-68
2022/08/22 11:11:31;;;;;;;3.28;1.48;;;23.70;83.20;;;;;;5049707;28;20028;-68
2022/08/22 11:14:25;;;;;;;8.20;2.95;;;23.80;83.20;;;;;;5047547;28;20032;-69
2022/08/22 11:17:02;;;;;;;5.60;1.90;;;24.10;83.40;;;;;;5069419;28;20099;-67
2022/08/22 11:19:52;;;;;;;5.15;1.85;;;24.30;82.30;;;;;;5064518;28;20086;-70
2022/08/22 11:23:00;;;;;;;8.57;2.17;;;24.40;82.20;;;;;;5046564;28;20029;-68
2022/08/22 11:25:51;;;;;;;4.05;1.67;;;25.70;83.90;;;;;;5026769;28;20041;-68
2022/08/22 11:28:48;;;;;;;4.60;2.10;;;24.80;80.80;;;;;;5019956;28;20037;-69
2022/08/22 11:31:38;;;;;;;7.88;2.80;;;24.60;79.80;;;;;;5011637;28;20025;-70
2022/08/22 11:34:38;;;;;;;8.95;2.97;;;24.70;80.10;;;;;;5039638;28;20037;-69
2022/08/22 11:37:22;;;;;;;6.93;2.63;;;24.70;82.10;;;;;;5009693;28;20517;-69
2022/08/22 11:40:26;;;;;;;6.78;2.72;;;24.60;81.80;;;;;;5026199;28;20021;-70
2022/08/22 11:43:38;;;;;;;4.30;1.80;;;24.60;82.30;;;;;;5007819;28;20037;-69
2022/08/22 11:46:34;;;;;;;5.70;2.20;;;24.50;82.30;;;;;;5031689;28;20033;-70
2022/08/22 11:49:26;;;;;;;6.70;2.80;;;24.50;82.30;;;;;;5040253;28;20033;-70
2022/08/22 11:52:06;;;;;;;4.40;2.00;;;24.50;81.80;;;;;;5040576;28;20032;-69
2022/08/22 11:54:53;;;;;;;2.88;1.63;;;24.50;81.00;;;;;;5008897;28;20079;-70
2022/08/22 11:57:36;;;;;;;6.45;2.88;;;24.50;80.50;;;;;;5044883;28;20033;-70
2022/08/22 12:00:28;;;;;;;6.35;2.70;;;24.40;80.70;;;;;;5042555;28;20398;-72
2022/08/22 12:03:14;;;;;;;5.80;3.75;;;24.40;80.40;;;;;;5066966;28;20032;-68
2022/08/22 12:06:07;;;;;;;9.73;3.40;;;25.40;82.20;;;;;;5066653;28;20020;-70
2022/08/22 12:08:32;;;;;;;7.67;2.63;;;24.40;79.80;;;;;;5055250;28;20033;-71
2022/08/22 12:11:07;;;;;;;5.57;3.10;;;24.40;80.40;;;;;;5049255;28;20263;-70
2022/08/22 12:13:57;;;;;;;7.72;2.47;;;25.80;81.60;;;;;;5070920;28;20050;-70
2022/08/22 12:16:49;;;;;;;6.00;1.88;;;24.90;79.00;;;;;;5072046;28;20032;-70
2022/08/22 12:19:29;;;;;;;7.22;2.67;;;25.20;77.10;;;;;;5072046;28;20024;-70
2022/08/22 12:22:33;;;;;;;7.20;1.90;;;25.40;77.20;;;;;;5071240;28;20467;-71
2022/08/22 12:25:33;;;;;;;6.43;2.55;;;25.60;76.70;;;;;;5060857;28;20024;-70
2022/08/22 12:28:20;;;;;;;3.28;1.77;;;25.90;76.50;;;;;;5067245;28;20031;-70
2022/08/22 12:30:57;;;;;;;8.80;1.80;;;26.20;76.30;;;;;;5040352;28;20029;-71
2022/08/22 12:33:39;;;;;;;6.45;2.33;;;26.30;77.60;;;;;;5051094;28;20425;-70
2022/08/22 12:36:34;;;;;;;4.00;1.70;;;26.40;76.90;;;;;;5060526;28;20115;-70
2022/08/22 12:39:18;;;;;;;6.40;2.35;;;26.70;75.50;;;;;;5064307;28;20025;-70
2022/08/22 12:42:21;;;;;;;4.35;1.58;;;26.80;73.60;;;;;;5052032;28;20171;-70
2022/08/22 12:45:07;;;;;;;5.63;1.70;;;27.00;73.80;;;;;;5051636;28;20028;-70
2022/08/22 12:48:20;;;;;;;7.30;2.38;;;26.90;73.50;;;;;;5051870;28;20025;-70
2022/08/22 12:51:04;;;;;;;6.93;1.98;;;27.00;73.30;;;;;;5007587;28;20048;-70
2022/08/22 12:54:04;;;;;;;6.95;1.77;;;27.00;72.00;;;;;;5009689;28;20049;-70
2022/08/22 12:56:48;;;;;;;6.40;2.35;;;26.90;72.90;;;;;;5008499;28;20038;-70
2022/08/22 12:59:28;;;;;;;4.65;1.92;;;27.10;74.50;;;;;;5008824;28;20042;-70
2022/08/22 13:02:01;;;;;;;5.05;1.70;;;27.20;74.00;;;;;;5009655;28;20125;-70
2022/08/22 13:04:33;;;;;;;5.25;1.98;;;27.20;72.40;;;;;;5005186;28;20478;-71
2022/08/22 13:07:15;;;;;;;7.65;1.92;;;27.00;74.30;;;;;;5005355;28;20193;-71
2022/08/22 13:09:47;;;;;;;6.28;1.92;;;27.10;73.40;;;;;;5009312;28;20022;-70
2022/08/22 13:12:31;;;;;;;7.07;2.03;;;27.00;73.00;;;;;;5007697;28;20364;-71
2022/08/22 13:15:28;;;;;;;5.60;1.40;;;27.10;70.80;;;;;;5009839;28;20038;-70
2022/08/22 13:17:56;;;;;;;4.93;1.40;;;27.10;70.70;;;;;;5008291;28;20792;-71
2022/08/22 13:20:31;;;;;;;5.60;1.85;;;27.30;71.80;;;;;;5009038;28;20070;-70
2022/08/22 13:23:00;;;;;;;4.65;1.83;;;27.20;70.00;;;;;;5009466;28;20026;-70
2022/08/22 13:25:49;;;;;;;5.22;1.42;;;27.10;71.80;;;;;;5011528;28;20034;-70
2022/08/22 13:28:15;;;;;;;5.63;1.92;;;27.20;71.00;;;;;;5059430;28;20492;-70
2022/08/22 13:30:41;;;;;;;5.75;2.20;;;27.80;70.70;;;;;;5067552;28;20320;-70
2022/08/22 13:33:15;;;;;;;5.18;1.88;;;27.10;70.00;;;;;;5070630;28;20025;-70
2022/08/22 13:35:44;;;;;;;;;;;27.50;70.10;;;;;;5071816;28;20027;-70
2022/08/22 13:38:26;;;;;;;3.92;1.42;;;27.40;71.00;;;;;;5069998;28;19904;-70
2022/08/22 13:40:54;;;;;;;6.38;1.88;;;27.30;68.70;;;;;;5070244;28;20063;-71
2022/08/22 13:43:33;;;;;;;5.75;1.88;;;27.50;69.50;;;;;;5067471;28;20055;-71
2022/08/22 13:46:03;;;;;;;4.10;1.58;;;27.50;68.80;;;;;;5064769;28;20492;-71
2022/08/22 13:48:46;;;;;;;6.40;2.22;;;27.60;68.60;;;;;;5065904;28;20016;-71
2022/08/22 13:51:25;;;;;;;5.57;1.83;;;27.50;68.80;;;;;;5054619;28;20032;-71
2022/08/22 13:54:13;;;;;;;6.68;1.98;;;27.30;67.30;;;;;;5050194;28;20061;-70
2022/08/22 13:56:55;;;;;;;5.47;1.48;;;27.40;68.80;;;;;;5050697;28;20037;-70
2022/08/22 13:59:47;;;;;;;4.63;1.55;;;27.30;68.60;;;;;;5050190;28;20045;-70
2022/08/22 14:02:54;;;;;;;6.07;1.83;;;27.40;67.00;;;;;;5049625;28;20044;-72
2022/08/22 14:05:32;;;;;;;3.83;1.58;;;27.40;66.40;;;;;;5041730;28;20078;-70
2022/08/22 14:08:20;;;;;;;5.82;1.85;;;27.40;65.50;;;;;;5050869;28;20095;-70